Time;durP1;ratioP1;P1;durP2;ratioP2;P2;SDS_P1;SDS_P2;PMS_P1;PMS_P2;Temp;Humidity;BMP_temperature;BMP_pressure;BME280_temperature;BME280_humidity;BME280_pressure;Samples;Min_cycle;Max_cycle;Signal;HPM_P1;HPM_P2
2021/10/01 00:01:07;;;;;;;;;66.00;53.75;21.10;53.40;;;;;;5116171;28;8745;-67
2021/10/01 00:03:33;;;;;;;;;63.25;51.50;21.00;53.60;;;;;;5116230;28;8802;-66
2021/10/01 00:05:58;;;;;;;;;65.75;55.00;21.10;53.60;;;;;;5116039;28;8773;-66
2021/10/01 00:08:24;;;;;;;;;62.75;52.25;21.10;53.60;;;;;;5115933;28;8916;-67
2021/10/01 00:10:50;;;;;;;;;63.25;52.00;21.10;54.70;;;;;;5116264;28;8913;-67
2021/10/01 00:13:16;;;;;;;;;55.00;46.75;21.10;53.70;;;;;;5115999;28;8886;-66
2021/10/01 00:15:44;;;;;;;;;65.00;53.25;21.10;53.70;;;;;;5115988;28;8746;-67
2021/10/01 00:18:11;;;;;;;;;59.75;50.25;21.10;53.50;;;;;;5115900;28;8784;-66
2021/10/01 00:20:37;;;;;;;;;60.25;50.00;21.00;53.80;;;;;;5116124;28;8785;-66
2021/10/01 00:23:04;;;;;;;;;62.75;52.25;21.10;53.60;;;;;;5115893;28;8754;-66
2021/10/01 00:25:30;;;;;;;;;64.00;52.50;21.00;54.70;;;;;;5116159;28;8757;-66
2021/10/01 00:27:56;;;;;;;;;65.50;54.00;21.00;54.10;;;;;;5115893;28;9503;-66
2021/10/01 00:30:23;;;;;;;;;64.25;52.00;21.00;54.20;;;;;;5115648;28;8758;-66
2021/10/01 00:32:48;;;;;;;;;66.00;54.50;21.10;54.10;;;;;;5115807;28;8773;-66
2021/10/01 00:35:15;;;;;;;;;63.00;52.00;21.10;54.20;;;;;;5115618;28;9412;-67
2021/10/01 00:37:41;;;;;;;;;69.50;56.25;21.10;54.20;;;;;;5115521;28;8878;-66
2021/10/01 00:40:07;;;;;;;;;69.75;56.50;21.10;54.10;;;;;;5115411;28;9463;-66
2021/10/01 00:42:33;;;;;;;;;63.00;52.00;21.10;54.10;;;;;;5115654;28;8796;-66
2021/10/01 00:44:59;;;;;;;;;67.00;55.50;21.20;54.00;;;;;;5115652;28;9438;-66
2021/10/01 00:47:25;;;;;;;;;66.00;54.25;21.20;53.80;;;;;;5115381;28;9403;-67
2021/10/01 00:49:50;;;;;;;;;61.50;50.50;21.20;54.00;;;;;;5115221;28;9443;-67
2021/10/01 00:52:19;;;;;;;;;51.25;43.00;21.20;53.70;;;;;;5115278;28;9427;-67
2021/10/01 00:54:44;;;;;;;;;63.00;51.00;21.30;53.20;;;;;;5115259;28;8738;-67
2021/10/01 00:57:10;;;;;;;;;61.75;51.00;21.30;53.80;;;;;;5115141;28;8777;-67
2021/10/01 00:59:36;;;;;;;;;57.25;48.25;21.20;53.80;;;;;;5115215;28;8951;-66
2021/10/01 01:02:03;;;;;;;;;61.75;51.50;21.30;53.60;;;;;;5115327;28;8762;-67
2021/10/01 01:04:30;;;;;;;;;69.00;56.50;21.30;53.50;;;;;;5115497;28;8866;-67
2021/10/01 01:07:06;;;;;;;;;61.00;51.00;21.30;53.60;;;;;;5115067;28;8780;-67
2021/10/01 01:09:55;;;;;;;;;59.75;50.25;21.30;53.70;;;;;;5114730;28;8908;-67
2021/10/01 01:12:31;;;;;;;;;63.50;52.75;21.30;53.20;;;;;;5115013;28;8791;-67
2021/10/01 01:15:04;;;;;;;;;66.75;54.75;21.20;53.50;;;;;;5114987;28;8785;-66
2021/10/01 01:18:12;;;;;;;;;64.25;52.25;21.20;53.70;;;;;;5115194;28;9486;-67
2021/10/01 01:20:50;;;;;;;;;63.75;52.25;21.30;53.40;;;;;;5115035;28;8754;-67
2021/10/01 01:23:34;;;;;;;;;65.50;53.25;21.20;53.50;;;;;;5115184;28;9407;-67
2021/10/01 01:26:19;;;;;;;;;58.00;48.25;21.20;53.60;;;;;;5115142;28;8754;-67
2021/10/01 01:29:17;;;;;;;;;59.75;50.00;21.20;53.30;;;;;;5115045;28;8797;-67
2021/10/01 01:31:56;;;;;;;;;65.25;53.75;21.30;53.60;;;;;;5110551;28;8770;-68
2021/10/01 01:34:32;;;;;;;;;57.00;47.75;21.20;53.50;;;;;;5115037;28;8898;-68
2021/10/01 01:37:04;;;;;;;;;63.00;52.00;21.20;53.70;;;;;;5114837;28;8745;-66
2021/10/01 01:39:33;;;;;;;;;68.50;56.50;21.20;53.70;;;;;;5114636;28;8919;-67
2021/10/01 01:42:00;;;;;;;;;65.50;54.00;21.20;53.60;;;;;;5114725;28;8876;-67
2021/10/01 01:44:28;;;;;;;;;61.50;51.75;21.20;53.40;;;;;;5114631;28;8841;-68
2021/10/01 01:46:57;;;;;;;;;62.75;51.75;21.20;53.20;;;;;;5114923;28;9438;-67
2021/10/01 01:49:24;;;;;;;;;61.50;52.00;21.20;53.30;;;;;;5114815;28;8912;-67
2021/10/01 01:51:51;;;;;;;;;60.50;50.25;21.20;53.30;;;;;;5114880;28;8760;-67
2021/10/01 01:54:21;;;;;;;;;60.25;50.00;21.30;53.30;;;;;;5114923;28;8784;-68
2021/10/01 01:56:48;;;;;;;;;57.00;48.00;21.20;53.30;;;;;;5114873;28;8871;-67
2021/10/01 01:59:15;;;;;;;;;59.00;48.75;21.20;53.10;;;;;;5114841;28;8773;-67
2021/10/01 02:01:42;;;;;;;;;56.50;48.00;21.20;53.20;;;;;;5114755;28;8892;-67
2021/10/01 02:04:09;;;;;;;;;60.50;50.75;21.10;53.30;;;;;;5114916;28;9456;-67
2021/10/01 02:06:36;;;;;;;;;64.25;53.25;21.10;53.50;;;;;;5114765;28;8776;-67
2021/10/01 02:09:03;;;;;;;;;62.00;50.00;21.10;53.60;;;;;;5114669;28;8809;-67
2021/10/01 02:11:30;;;;;;;;;65.25;54.50;21.10;53.60;;;;;;5114690;28;8766;-67
2021/10/01 02:13:57;;;;;;;;;58.00;48.00;20.90;53.80;;;;;;5114481;28;8746;-67
2021/10/01 02:16:25;;;;;;;;;64.25;52.50;21.00;53.60;;;;;;5114563;28;8768;-67
2021/10/01 02:18:52;;;;;;;;;58.75;49.75;21.10;54.10;;;;;;5114369;28;8800;-67
2021/10/01 02:21:21;;;;;;;;;60.25;50.00;21.10;53.40;;;;;;5114508;28;8850;-67
2021/10/01 02:23:47;;;;;;;;;55.00;46.25;21.10;53.60;;;;;;5118185;28;8765;-67
2021/10/01 02:26:36;;;;;;;;;64.00;53.50;21.10;53.90;;;;;;5118180;28;8845;-69
2021/10/01 02:29:21;;;;;;;;;61.75;52.00;21.00;54.00;;;;;;5118222;28;8809;-67
2021/10/01 02:32:07;;;;;;;;;57.75;48.25;21.00;54.20;;;;;;5118035;28;8770;-67
2021/10/01 02:34:37;;;;;;;;;58.25;49.25;21.00;54.00;;;;;;5118350;28;8888;-67
2021/10/01 02:37:05;;;;;;;;;59.50;49.00;21.10;53.50;;;;;;5118082;28;8872;-67
2021/10/01 02:39:33;;;;;;;;;66.00;54.25;21.10;54.00;;;;;;5117703;28;8809;-67
2021/10/01 02:41:59;;;;;;;;;61.00;51.50;21.10;53.80;;;;;;5118093;28;8765;-67
2021/10/01 02:44:25;;;;;;;;;62.25;51.50;21.10;53.80;;;;;;5099641;28;8884;-67
2021/10/01 02:46:51;;;;;;;;;59.25;49.00;21.10;53.80;;;;;;5117660;28;8804;-67
2021/10/01 02:49:17;;;;;;;;;58.00;48.50;21.20;53.50;;;;;;5117809;28;8874;-67
2021/10/01 02:51:49;;;;;;;;;61.50;50.75;21.10;53.30;;;;;;5117598;28;8754;-69
2021/10/01 02:54:18;;;;;;;;;61.75;50.00;21.00;53.80;;;;;;5117850;28;8773;-67
2021/10/01 02:56:55;;;;;;;;;61.00;51.25;21.10;53.80;;;;;;5117476;28;8837;-67
2021/10/01 02:59:26;;;;;;;;;55.75;47.00;21.10;53.70;;;;;;5117783;28;8773;-67
2021/10/01 03:01:53;;;;;;;;;59.00;49.00;21.20;53.80;;;;;;5117446;28;8856;-67
2021/10/01 03:04:23;;;;;;;;;63.00;51.50;21.10;53.90;;;;;;5117703;28;8793;-67
2021/10/01 03:06:51;;;;;;;;;64.00;53.00;21.10;53.90;;;;;;5117509;28;8766;-67
2021/10/01 03:09:20;;;;;;;;;55.00;45.50;21.20;53.70;;;;;;5117204;28;8812;-67
2021/10/01 03:11:48;;;;;;;;;55.75;48.00;21.20;53.50;;;;;;5117405;28;8753;-67
2021/10/01 03:14:16;;;;;;;;;62.00;52.25;21.20;53.60;;;;;;5117573;28;8860;-67
2021/10/01 03:16:44;;;;;;;;;58.25;47.25;21.20;53.90;;;;;;5117075;28;8750;-67
2021/10/01 03:19:11;;;;;;;;;53.25;45.00;21.10;53.70;;;;;;5117036;28;8761;-67
2021/10/01 03:21:40;;;;;;;;;58.75;48.25;21.00;54.00;;;;;;5116985;28;8792;-67
2021/10/01 03:24:08;;;;;;;;;56.25;47.00;21.00;54.10;;;;;;5117196;28;8770;-67
2021/10/01 03:26:34;;;;;;;;;57.50;47.50;21.00;54.10;;;;;;5116824;28;8762;-67
2021/10/01 03:29:01;;;;;;;;;56.50;47.00;21.10;54.10;;;;;;5117067;28;9655;-67
2021/10/01 03:31:27;;;;;;;;;60.75;51.75;21.10;53.70;;;;;;5116810;28;8895;-67
2021/10/01 03:33:54;;;;;;;;;59.25;49.50;21.10;53.80;;;;;;5116684;28;8896;-67
2021/10/01 03:36:21;;;;;;;;;57.25;48.75;21.20;53.70;;;;;;5117002;28;9478;-67
2021/10/01 03:38:48;;;;;;;;;56.50;47.25;21.10;53.70;;;;;;5116252;28;8773;-67
2021/10/01 03:41:15;;;;;;;;;56.00;47.00;21.10;53.70;;;;;;5116951;28;9636;-67
2021/10/01 03:43:42;;;;;;;;;57.25;48.25;21.10;53.50;;;;;;5116499;28;8808;-67
2021/10/01 03:46:08;;;;;;;;;58.25;49.00;21.10;53.50;;;;;;5116498;28;8758;-67
2021/10/01 03:48:33;;;;;;;;;59.50;50.50;21.20;53.80;;;;;;5116374;28;8816;-67
2021/10/01 03:50:59;;;;;;;;;58.50;49.50;21.10;53.70;;;;;;5116419;28;8738;-67
2021/10/01 03:53:25;;;;;;;;;58.00;48.75;21.10;53.80;;;;;;5116630;28;8758;-67
2021/10/01 03:55:51;;;;;;;;;60.50;50.50;21.10;53.70;;;;;;5116509;28;8777;-67
2021/10/01 03:58:17;;;;;;;;;56.75;48.00;21.00;53.70;;;;;;5116308;28;8754;-67
2021/10/01 04:00:46;;;;;;;;;55.75;47.00;21.00;53.90;;;;;;5116227;28;8793;-67
2021/10/01 04:03:14;;;;;;;;;59.25;48.75;21.00;53.90;;;;;;5116408;28;8778;-67
2021/10/01 04:05:41;;;;;;;;;57.50;47.50;20.90;53.90;;;;;;5116129;28;8769;-67
2021/10/01 04:08:11;;;;;;;;;58.00;49.25;21.00;54.20;;;;;;5116307;28;8757;-67
2021/10/01 04:10:38;;;;;;;;;56.50;47.50;21.00;53.90;;;;;;5116379;28;9599;-67
2021/10/01 04:13:07;;;;;;;;;54.00;46.25;21.00;53.60;;;;;;5116061;28;8864;-67
2021/10/01 04:15:33;;;;;;;;;56.50;47.50;21.10;53.30;;;;;;5116166;28;8758;-67
2021/10/01 04:17:59;;;;;;;;;59.75;50.50;21.10;53.60;;;;;;5115931;28;8766;-68
2021/10/01 04:20:25;;;;;;;;;57.00;48.00;21.10;53.50;;;;;;5115964;28;8750;-68
2021/10/01 04:22:51;;;;;;;;;57.50;48.25;21.10;53.40;;;;;;5115836;28;8804;-68
2021/10/01 04:25:18;;;;;;;;;59.00;49.25;21.10;53.40;;;;;;5115382;28;8754;-67
2021/10/01 04:27:43;;;;;;;;;58.50;49.25;21.10;53.60;;;;;;5115734;28;8765;-68
2021/10/01 04:30:10;;;;;;;;;60.25;51.25;21.10;53.60;;;;;;5115801;28;8817;-67
2021/10/01 04:32:39;;;;;;;;;52.25;45.00;21.00;53.70;;;;;;5115535;28;8770;-66
2021/10/01 04:35:09;;;;;;;;;55.50;46.25;20.90;53.90;;;;;;5113681;28;8770;-66
2021/10/01 04:37:36;;;;;;;;;61.50;49.75;20.90;54.00;;;;;;5115485;28;8796;-65
2021/10/01 04:40:03;;;;;;;;;55.75;46.75;21.00;54.10;;;;;;5113440;28;8848;-66
2021/10/01 04:42:30;;;;;;;;;59.25;48.75;21.00;53.90;;;;;;5114712;28;8924;-68
2021/10/01 04:44:56;;;;;;;;;57.50;47.75;21.10;54.10;;;;;;5113710;28;9582;-68
2021/10/01 04:47:22;;;;;;;;;66.00;55.25;21.10;53.60;;;;;;5113710;28;8758;-70
2021/10/01 04:49:47;;;;;;;;;59.25;49.00;21.10;53.50;;;;;;5114225;28;8819;-65
2021/10/01 04:52:13;;;;;;;;;61.25;51.50;21.10;53.50;;;;;;5114804;28;8754;-68
2021/10/01 04:54:39;;;;;;;;;56.50;47.50;21.10;53.80;;;;;;5114161;28;8867;-74
2021/10/01 04:57:07;;;;;;;;;59.25;49.50;21.20;53.70;;;;;;5113373;28;8765;-66
2021/10/01 04:59:33;;;;;;;;;60.00;50.75;21.20;53.80;;;;;;5112492;28;8777;-65
2021/10/01 05:01:59;;;;;;;;;60.75;50.00;21.20;53.70;;;;;;5114811;28;8796;-65
2021/10/01 05:04:24;;;;;;;;;60.50;50.50;21.20;53.70;;;;;;5115270;28;8878;-67
2021/10/01 05:06:50;;;;;;;;;62.50;51.75;21.20;53.70;;;;;;5113039;28;8782;-66
2021/10/01 05:09:16;;;;;;;;;66.25;54.25;21.20;53.70;;;;;;5076815;28;8791;-66
2021/10/01 05:11:42;;;;;;;;;66.50;55.00;21.20;53.60;;;;;;5094237;28;9517;-66
2021/10/01 05:14:07;;;;;;;;;61.75;50.75;21.20;53.60;;;;;;5094634;28;8768;-66
2021/10/01 05:16:33;;;;;;;;;63.75;51.50;21.20;53.80;;;;;;5094784;28;8756;-67
2021/10/01 05:18:59;;;;;;;;;62.50;52.00;21.20;53.40;;;;;;5094904;28;8759;-66
2021/10/01 05:21:25;;;;;;;;;62.00;51.75;21.20;53.20;;;;;;5094966;28;8824;-66
2021/10/01 05:23:51;;;;;;;;;63.25;52.25;21.20;53.30;;;;;;5094899;28;8768;-67
2021/10/01 05:26:16;;;;;;;;;61.75;51.50;21.20;53.50;;;;;;5094546;28;9426;-66
2021/10/01 05:28:42;;;;;;;;;64.50;52.75;21.10;53.50;;;;;;5094438;28;8931;-67
2021/10/01 05:31:08;;;;;;;;;60.25;50.00;21.20;53.60;;;;;;5094682;28;8771;-66
2021/10/01 05:33:34;;;;;;;;;59.75;49.75;21.20;53.00;;;;;;5094247;28;8791;-66
2021/10/01 05:36:00;;;;;;;;;63.75;53.00;21.30;52.90;;;;;;5094765;28;8878;-67
2021/10/01 05:38:25;;;;;;;;;64.25;54.25;21.30;53.20;;;;;;5094391;28;8772;-67
2021/10/01 05:40:52;;;;;;;;;60.25;50.00;21.30;52.90;;;;;;5094235;28;8888;-67
2021/10/01 05:43:24;;;;;;;;;60.50;49.50;21.30;53.00;;;;;;5094143;28;8780;-66
2021/10/01 05:45:54;;;;;;;;;66.75;54.25;21.20;53.40;;;;;;5094603;28;8776;-67
2021/10/01 05:48:23;;;;;;;;;63.00;52.25;21.10;53.20;;;;;;5094220;28;8768;-67
2021/10/01 05:50:54;;;;;;;;;62.50;51.75;21.10;53.60;;;;;;5094589;28;8784;-66
2021/10/01 05:56:08;;;;;;;;;65.25;53.50;21.10;53.60;;;;;;5094329;28;8763;-66
2021/10/01 05:58:36;;;;;;;;;62.50;51.75;20.90;54.20;;;;;;5098253;28;8759;-67
2021/10/01 06:01:02;;;;;;;;;66.50;54.75;20.90;54.50;;;;;;5098186;28;8783;-65
2021/10/01 06:03:28;;;;;;;;;60.25;50.00;21.00;54.30;;;;;;5098207;28;8787;-68
2021/10/01 06:05:54;;;;;;;;;59.00;50.00;21.00;53.90;;;;;;5098089;28;8806;-66
2021/10/01 06:08:20;;;;;;;;;64.50;52.50;21.00;55.00;;;;;;5097890;28;8778;-65
2021/10/01 06:10:47;;;;;;;;;66.75;55.00;21.10;53.90;;;;;;5097960;28;8787;-65
2021/10/01 06:13:13;;;;;;;;;71.25;58.50;21.10;54.00;;;;;;5097898;28;8760;-67
2021/10/01 06:15:39;;;;;;;;;67.00;54.75;21.00;54.10;;;;;;5098157;28;8801;-66
2021/10/01 06:18:05;;;;;;;;;63.50;52.00;20.90;54.10;;;;;;5098126;28;8760;-66
2021/10/01 06:20:31;;;;;;;;;64.00;52.50;20.90;54.20;;;;;;5097649;28;9480;-65
2021/10/01 06:22:57;;;;;;;;;60.50;49.75;21.00;54.30;;;;;;5096537;28;8853;-67
2021/10/01 06:25:22;;;;;;;;;61.25;50.50;20.90;54.40;;;;;;5097768;28;8789;-67
2021/10/01 06:27:49;;;;;;;;;62.75;50.75;20.90;54.70;;;;;;5097627;28;8768;-66
2021/10/01 06:30:16;;;;;;;;;66.00;55.25;20.90;54.40;;;;;;5097669;28;8807;-66
2021/10/01 06:32:43;;;;;;;;;66.50;53.00;20.90;54.80;;;;;;5097511;28;8791;-66
2021/10/01 06:35:09;;;;;;;;;74.25;59.00;21.00;54.50;;;;;;5097546;28;8807;-67
2021/10/01 06:37:35;;;;;;;;;68.75;56.25;21.00;54.40;;;;;;5097429;28;8772;-68
2021/10/01 06:40:02;;;;;;;;;71.00;57.25;21.00;54.30;;;;;;5097231;28;8820;-66
2021/10/01 06:42:28;;;;;;;;;63.25;51.25;21.00;54.00;;;;;;5097552;28;8771;-66
2021/10/01 06:44:55;;;;;;;;;67.25;54.25;21.10;54.00;;;;;;5097280;28;8771;-68
2021/10/01 06:48:10;;;;;;;;;70.00;56.75;21.10;54.30;;;;;;5097208;28;8814;-68
2021/10/01 07:39:32;;;;;;;;;63.75;52.75;21.30;53.00;;;;;;5096377;28;8942;-68
2021/10/01 08:20:06;;;;;;;;;65.50;53.75;21.60;51.70;;;;;;5113441;28;8765;-65
2021/10/01 08:22:31;;;;;;;;;69.25;56.00;21.70;51.60;;;;;;5115919;28;9454;-65
2021/10/01 08:24:57;;;;;;;;;63.50;51.50;21.70;51.00;;;;;;5115885;28;8835;-66
2021/10/01 08:27:24;;;;;;;;;63.50;52.75;21.70;51.10;;;;;;5115515;28;8759;-67
2021/10/01 08:29:50;;;;;;;;;67.00;55.00;21.70;51.20;;;;;;5115649;28;8830;-66
2021/10/01 08:32:16;;;;;;;;;65.50;53.00;21.70;51.40;;;;;;5115566;28;8774;-66
2021/10/01 08:34:45;;;;;;;;;62.25;51.50;21.70;51.10;;;;;;5115718;28;8751;-66
2021/10/01 08:37:13;;;;;;;;;67.00;54.00;21.80;51.80;;;;;;5115349;28;8812;-66
2021/10/01 08:39:40;;;;;;;;;59.25;49.25;22.00;50.40;;;;;;5115147;28;8817;-66
2021/10/01 08:42:06;;;;;;;;;60.50;51.00;22.10;50.40;;;;;;5115579;28;8850;-67
2021/10/01 08:44:33;;;;;;;;;63.75;53.25;22.10;50.10;;;;;;5115522;28;8773;-66
2021/10/01 08:47:02;;;;;;;;;63.00;51.50;22.10;49.80;;;;;;5114992;28;8777;-66
2021/10/01 08:49:29;;;;;;;;;62.50;51.25;22.30;49.40;;;;;;5115066;28;8797;-66
2021/10/01 08:51:55;;;;;;;;;61.00;51.25;22.20;49.00;;;;;;5115448;28;8772;-68
2021/10/01 08:54:22;;;;;;;;;59.25;49.25;22.30;49.00;;;;;;5114995;28;8813;-65
2021/10/01 08:56:48;;;;;;;;;61.50;51.75;22.20;49.30;;;;;;5115125;28;8761;-66
2021/10/01 08:59:14;;;;;;;;;51.00;44.00;22.10;49.70;;;;;;5115340;28;8757;-67
2021/10/01 09:01:40;;;;;;;;;59.25;49.25;22.20;49.70;;;;;;5115160;28;8765;-66
2021/10/01 09:04:07;;;;;;;;;58.00;47.75;22.30;48.70;;;;;;5115244;28;8832;-67
2021/10/01 09:06:33;;;;;;;;;59.25;48.50;22.40;49.40;;;;;;5114971;28;8777;-66
2021/10/01 09:09:04;;;;;;;;;61.00;50.25;22.40;48.90;;;;;;5114964;28;8840;-66
2021/10/01 09:11:36;;;;;;;;;60.50;50.75;22.60;48.90;;;;;;5114906;28;9361;-67
2021/10/01 09:14:10;;;;;;;;;54.75;46.75;22.90;48.30;;;;;;5094418;28;8760;-66
2021/10/01 09:16:38;;;;;;;;;57.33;48.00;23.10;47.50;;;;;;5094659;28;8772;-65
2021/10/01 09:19:06;;;;;;;;;58.75;49.50;23.20;47.10;;;;;;5113601;28;8782;-65
2021/10/01 09:21:42;;;;;;;;;58.75;48.75;23.20;46.80;;;;;;5114942;28;8767;-64
2021/10/01 09:24:10;;;;;;;;;58.00;47.25;23.20;46.20;;;;;;5115110;28;8763;-64
2021/10/01 09:26:48;;;;;;;;;56.75;48.25;23.40;46.40;;;;;;5114988;28;8758;-64
2021/10/01 09:29:23;;;;;;;;;53.00;45.33;23.80;46.30;;;;;;5114640;28;8934;-65
2021/10/01 09:31:49;;;;;;;;;51.00;43.33;23.90;44.90;;;;;;5119276;28;8770;-65
2021/10/01 09:34:35;;;;;;;;;53.00;45.33;23.60;44.00;;;;;;5121818;28;8813;-65
2021/10/01 09:37:05;;;;;;;;;50.00;42.67;23.30;44.20;;;;;;5120708;28;8761;-65
2021/10/01 09:39:39;;;;;;;;;50.33;43.67;23.40;44.70;;;;;;5121289;28;8809;-65
2021/10/01 09:42:13;;;;;;;;;49.67;43.00;23.50;44.60;;;;;;5121373;28;8781;-65
2021/10/01 09:45:01;;;;;;;;;48.00;41.00;23.50;44.70;;;;;;5121356;28;8754;-65
2021/10/01 09:47:33;;;;;;;;;52.00;44.33;23.60;44.40;;;;;;5121252;27;8809;-67
2021/10/01 09:50:09;;;;;;;;;51.33;43.33;23.80;44.10;;;;;;5121410;28;8793;-65
2021/10/01 09:52:41;;;;;;;;;52.33;44.33;23.70;43.40;;;;;;5121137;28;8766;-68
2021/10/01 09:55:07;;;;;;;;;43.67;38.33;23.90;43.90;;;;;;5121245;28;8738;-68
2021/10/01 09:57:38;;;;;;;;;45.67;39.67;23.90;42.90;;;;;;5121153;28;8742;-70
2021/10/01 10:00:27;;;;;;;;;44.33;39.33;23.90;42.20;;;;;;5121105;28;8769;-70
2021/10/01 10:02:53;;;;;;;;;46.33;40.33;24.10;41.50;;;;;;5120935;28;8824;-69
2021/10/01 10:05:19;;;;;;;;;39.00;34.33;24.20;41.20;;;;;;5121131;28;8766;-69
2021/10/01 10:07:47;;;;;;;;;41.00;36.00;24.20;40.20;;;;;;5121012;28;8789;-69
2021/10/01 10:10:13;;;;;;;;;42.67;37.00;24.30;40.50;;;;;;5121115;28;8898;-70
2021/10/01 10:12:44;;;;;;;;;36.00;33.00;24.40;39.40;;;;;;5121284;28;9782;-69
2021/10/01 10:15:17;;;;;;;;;36.67;34.33;24.40;36.90;;;;;;5121293;28;8785;-68
2021/10/01 10:17:52;;;;;;;;;39.67;35.67;24.40;36.60;;;;;;5120628;27;8777;-68
2021/10/01 10:20:19;;;;;;;;;42.33;37.67;24.50;37.30;;;;;;5120798;28;8768;-68
2021/10/01 10:22:46;;;;;;;;;41.00;37.33;24.80;38.10;;;;;;5120924;28;8749;-70
2021/10/01 10:25:11;;;;;;;;;37.33;34.33;25.10;36.80;;;;;;5120939;28;8785;-70
2021/10/01 10:27:38;;;;;;;;;38.00;35.00;25.30;36.80;;;;;;5120847;28;8754;-71
2021/10/01 10:30:06;;;;;;;;;33.67;32.67;25.40;35.80;;;;;;5120925;28;8813;-68
2021/10/01 10:32:33;;;;;;;;;33.33;33.00;25.90;36.20;;;;;;5121331;28;8850;-68
2021/10/01 10:35:02;;;;;;;;;37.67;35.00;26.10;34.90;;;;;;5120893;28;8777;-68
2021/10/01 10:37:54;;;;;;;;;33.33;32.00;26.20;34.00;;;;;;5120852;28;8838;-70
2021/10/01 10:40:21;;;;;;;;;22.00;22.00;26.40;32.40;;;;;;5096725;28;8803;-66
2021/10/01 10:42:52;;;;;;;;;32.00;31.00;26.50;30.90;;;;;;5097932;28;8763;-66
2021/10/01 10:45:20;;;;;;;;;37.33;34.33;26.60;32.10;;;;;;5097313;28;8779;-67
2021/10/01 10:47:52;;;;;;;;;29.33;29.33;26.80;32.00;;;;;;5105252;28;8770;-67
2021/10/01 10:50:41;;;;;;;;;34.00;33.00;26.70;31.60;;;;;;5117344;28;8808;-66
2021/10/01 10:53:19;;;;;;;;;31.33;30.33;27.00;31.70;;;;;;5117618;28;8762;-67
2021/10/01 10:55:50;;;;;;;;;30.00;30.00;27.10;31.20;;;;;;5117145;28;8788;-68
2021/10/01 10:58:22;;;;;;;;;34.67;33.33;27.20;31.20;;;;;;5117335;28;8860;-66
2021/10/01 11:00:58;;;;;;;;;32.33;31.33;27.30;30.80;;;;;;5117598;28;9548;-66
2021/10/01 11:03:34;;;;;;;;;34.00;32.67;27.50;29.90;;;;;;5117165;28;8797;-67
2021/10/01 11:06:13;;;;;;;;;33.33;32.33;28.00;29.80;;;;;;5117491;28;9435;-67
2021/10/01 11:08:47;;;;;;;;;31.33;30.67;28.40;29.60;;;;;;5117127;28;8789;-67
2021/10/01 11:11:33;;;;;;;;;30.33;30.33;28.20;28.90;;;;;;5117119;28;8761;-67
2021/10/01 11:14:17;;;;;;;;;30.67;30.00;28.30;28.60;;;;;;5117209;28;9360;-67
2021/10/01 11:17:09;;;;;;;;;33.33;32.33;28.90;28.40;;;;;;5117255;28;8766;-68
2021/10/01 11:19:40;;;;;;;;;33.33;31.67;29.00;28.20;;;;;;5096787;28;8768;-67
2021/10/01 11:22:31;;;;;;;;;31.33;29.67;28.80;28.00;;;;;;5096803;28;8784;-66
2021/10/01 11:25:04;;;;;;;;;27.00;27.00;29.20;27.40;;;;;;5096630;28;9475;-68
2021/10/01 11:27:30;;;;;;;;;31.33;30.33;29.80;27.20;;;;;;5096580;28;9421;-67
2021/10/01 11:29:57;;;;;;;;;28.00;28.00;30.40;27.10;;;;;;5096240;28;8811;-68
2021/10/01 11:32:25;;;;;;;;;29.33;29.33;30.90;26.40;;;;;;5096272;28;8836;-67
2021/10/01 11:34:55;;;;;;;;;20.67;20.67;30.90;25.00;;;;;;5096173;28;11490;-67
2021/10/01 11:37:43;;;;;;;;;25.67;25.33;30.70;24.10;;;;;;5096266;28;11474;-67
2021/10/01 11:40:11;;;;;;;;;28.00;28.00;30.60;24.80;;;;;;5095999;28;11480;-66
2021/10/01 11:42:42;;;;;;;;;27.67;26.67;30.70;25.20;;;;;;5095952;28;11596;-67
2021/10/01 11:45:16;;;;;;;;;27.00;27.00;30.60;24.70;;;;;;5096199;28;11475;-67
2021/10/01 11:47:53;;;;;;;;;28.33;28.33;30.70;24.00;;;;;;5103410;28;11469;-66
2021/10/01 11:50:42;;;;;;;;;34.00;32.33;31.10;24.30;;;;;;5116226;28;8790;-67
2021/10/01 11:53:30;;;;;;;;;29.67;29.67;30.90;25.40;;;;;;5116229;28;8766;-67
2021/10/01 11:56:02;;;;;;;;;29.00;29.00;31.50;24.80;;;;;;5115494;28;8846;-68
2021/10/01 11:58:31;;;;;;;;;27.33;27.33;31.60;24.30;;;;;;5116168;28;11433;-67
2021/10/01 12:01:09;;;;;;;;;30.00;30.00;31.50;23.90;;;;;;5116194;28;11464;-68
2021/10/01 12:03:35;;;;;;;;;32.33;31.33;32.00;24.10;;;;;;5116035;28;11481;-68
2021/10/01 12:06:01;;;;;;;;;33.00;32.00;32.70;23.60;;;;;;5115940;28;11452;-67
2021/10/01 12:08:29;;;;;;;;;33.00;32.00;32.30;23.90;;;;;;5116054;28;8769;-67
2021/10/01 12:10:57;;;;;;;;;43.33;37.67;32.20;24.40;;;;;;5115948;28;8757;-67
2021/10/01 12:13:28;;;;;;;;;39.33;35.67;31.60;24.70;;;;;;5115710;28;8761;-68
2021/10/01 12:16:04;;;;;;;;;43.33;37.67;31.60;25.50;;;;;;5116050;28;8786;-67
2021/10/01 12:18:41;;;;;;;;;40.67;35.67;31.40;25.40;;;;;;5115484;28;8776;-67
2021/10/01 12:21:12;;;;;;;;;34.67;32.67;31.60;25.20;;;;;;5113757;28;8786;-66
2021/10/01 12:23:43;;;;;;;;;39.00;34.67;32.00;25.40;;;;;;5114446;28;8765;-67
2021/10/01 12:26:31;;;;;;;;;31.33;31.33;32.30;24.40;;;;;;5114095;28;9408;-70
2021/10/01 12:29:14;;;;;;;;;33.33;31.67;31.70;24.30;;;;;;5113712;28;8794;-65
2021/10/01 12:32:01;;;;;;;;;26.00;26.00;31.50;24.60;;;;;;5110558;28;8776;-66
2021/10/01 12:34:32;;;;;;;;;35.00;33.00;31.00;24.80;;;;;;5112310;28;8873;-67
2021/10/01 12:37:11;;;;;;;;;29.67;29.00;30.80;25.10;;;;;;5110599;28;8843;-66
2021/10/01 12:39:41;;;;;;;;;30.00;29.67;30.50;25.90;;;;;;5114020;28;8940;-69
2021/10/01 12:42:12;;;;;;;;;32.00;31.00;30.20;26.00;;;;;;5115514;28;11454;-66
2021/10/01 12:44:41;;;;;;;;;30.33;30.00;30.60;26.20;;;;;;5115215;28;8777;-66
2021/10/01 12:47:14;;;;;;;;;29.00;29.00;31.40;25.10;;;;;;5114940;28;8792;-67
2021/10/01 12:49:41;;;;;;;;;24.00;24.00;31.60;24.00;;;;;;5114987;28;11479;-68
2021/10/01 12:52:15;;;;;;;;;28.67;28.67;31.90;24.90;;;;;;5115052;28;11557;-66
2021/10/01 12:54:41;;;;;;;;;28.33;28.33;31.80;24.00;;;;;;5115020;28;11440;-67
2021/10/01 12:57:30;;;;;;;;;28.00;28.00;31.80;23.70;;;;;;5115382;28;11553;-66
2021/10/01 13:00:02;;;;;;;;;28.33;28.33;31.90;24.40;;;;;;5115222;28;9431;-68
2021/10/01 13:02:41;;;;;;;;;30.00;30.00;31.50;24.00;;;;;;5114709;28;11458;-68
2021/10/01 13:05:15;;;;;;;;;29.00;29.00;31.00;24.30;;;;;;5115038;28;9613;-68
2021/10/01 13:07:44;;;;;;;;;31.33;30.33;31.10;24.90;;;;;;5114870;28;8770;-67
2021/10/01 13:10:21;;;;;;;;;33.00;32.00;31.60;24.70;;;;;;5115068;28;8797;-67
2021/10/01 13:12:47;;;;;;;;;25.00;25.00;32.20;24.60;;;;;;5114701;28;8793;-67
2021/10/01 13:15:29;;;;;;;;;14.33;14.33;33.00;23.30;;;;;;5114761;28;8786;-67
2021/10/01 13:18:14;;;;;;;;;27.33;27.33;34.00;23.40;;;;;;5114475;28;8773;-67
2021/10/01 13:20:43;;;;;;;;;31.67;31.33;35.10;22.70;;;;;;5114772;28;9439;-67
2021/10/01 13:23:28;;;;;;;;;29.33;28.67;35.50;21.60;;;;;;5114467;28;11550;-66
2021/10/01 13:25:56;;;;;;;;;29.00;28.33;35.00;21.30;;;;;;5114671;28;12261;-66
2021/10/01 13:28:25;;;;;;;;;34.33;32.00;34.70;21.60;;;;;;5114296;28;11447;-67
2021/10/01 13:30:51;;;;;;;;;22.00;22.00;34.60;22.10;;;;;;5114460;28;8888;-67
2021/10/01 13:33:18;;;;;;;;;30.33;30.33;35.10;21.50;;;;;;5114697;28;8821;-68
2021/10/01 13:35:45;;;;;;;;;28.67;28.67;34.80;21.30;;;;;;5114687;28;11438;-67
2021/10/01 13:38:11;;;;;;;;;25.00;25.00;34.30;20.90;;;;;;5114748;28;11436;-66
2021/10/01 13:40:38;;;;;;;;;29.00;29.00;33.00;21.40;;;;;;5113601;28;11500;-67
2021/10/01 13:43:05;;;;;;;;;28.67;28.67;31.60;22.40;;;;;;5114296;28;11457;-67
2021/10/01 13:45:31;;;;;;;;;30.00;30.00;30.80;23.90;;;;;;5114293;28;11430;-68
2021/10/01 13:47:57;;;;;;;;;30.00;30.00;30.40;24.60;;;;;;5114057;28;8941;-71
2021/10/01 13:50:23;;;;;;;;;29.00;29.00;30.10;25.40;;;;;;5106149;28;8829;-72
2021/10/01 13:52:49;;;;;;;;;32.33;31.33;29.70;25.70;;;;;;5095376;28;8778;-71
2021/10/01 13:55:16;;;;;;;;;25.33;25.33;29.20;26.30;;;;;;5113994;28;11454;-72
2021/10/01 13:57:42;;;;;;;;;30.00;30.00;29.10;26.60;;;;;;5093779;28;11464;-69
2021/10/01 14:00:11;;;;;;;;;28.67;28.67;28.90;27.10;;;;;;5107436;28;11627;-70
2021/10/01 14:02:38;;;;;;;;;27.00;27.00;28.70;27.00;;;;;;5112848;28;9513;-69
2021/10/01 14:05:07;;;;;;;;;31.33;30.33;28.50;26.90;;;;;;5111955;28;11466;-68
2021/10/01 14:07:33;;;;;;;;;23.67;23.67;28.30;27.20;;;;;;5094557;28;11479;-68
2021/10/01 14:10:00;;;;;;;;;29.00;29.00;28.20;27.10;;;;;;5114337;28;8813;-68
2021/10/01 14:12:30;;;;;;;;;27.00;27.00;28.20;27.50;;;;;;5096030;28;11446;-68
2021/10/01 14:14:57;;;;;;;;;26.00;26.00;28.10;27.30;;;;;;5114374;28;11524;-67
2021/10/01 14:17:23;;;;;;;;;25.67;25.67;28.10;27.30;;;;;;5114009;28;11553;-67
2021/10/01 14:19:50;;;;;;;;;27.00;27.00;27.90;27.50;;;;;;5118059;28;11465;-69